createdAt,value
2019-04-22T00:02:22.573Z,4.93
2019-04-22T00:05:09.597Z,4.67
2019-04-22T00:07:56.870Z,4.93
2019-04-22T00:10:35.440Z,5.00
2019-04-22T00:13:21.955Z,5.20
2019-04-22T00:15:42.428Z,5.87
2019-04-22T00:18:26.726Z,5.13
2019-04-22T00:20:58.412Z,4.80
2019-04-22T00:23:37.707Z,5.40
2019-04-22T00:26:26.107Z,5.30
2019-04-22T00:29:03.535Z,4.60
2019-04-22T00:31:54.713Z,5.30
2019-04-22T00:34:30.177Z,5.23
2019-04-22T00:37:01.004Z,4.87
2019-04-22T00:39:54.602Z,5.30
2019-04-22T00:42:17.257Z,5.57
2019-04-22T00:44:51.784Z,5.17
2019-04-22T00:47:50.765Z,5.80
2019-04-22T00:53:04.438Z,5.27
2019-04-22T00:55:31.292Z,4.83
2019-04-22T00:58:08.078Z,4.60
2019-04-22T01:00:45.079Z,5.20
2019-04-22T01:03:44.743Z,4.90
2019-04-22T01:06:10.737Z,4.83
2019-04-22T01:08:46.841Z,5.60
2019-04-22T01:11:17.264Z,5.10
2019-04-22T01:13:53.277Z,5.60
2019-04-22T01:16:23.328Z,5.40
2019-04-22T01:18:53.793Z,5.33
2019-04-22T01:21:37.087Z,5.47
2019-04-22T01:23:57.565Z,4.97
2019-04-22T01:26:30.080Z,5.90
2019-04-22T01:29:02.469Z,5.80
2019-04-22T01:31:25.342Z,5.37
2019-04-22T01:37:37.303Z,5.43
2019-04-22T01:40:16.668Z,5.57
2019-04-22T01:43:00.417Z,5.50
2019-04-22T01:45:28.107Z,5.40
2019-04-22T01:48:00.542Z,5.40
2019-04-22T01:50:45.854Z,5.73
2019-04-22T01:53:21.319Z,5.80
2019-04-22T01:55:50.056Z,5.47
2019-04-22T01:58:27.757Z,4.97
2019-04-22T02:01:00.035Z,6.77
2019-04-22T02:03:43.074Z,5.87
2019-04-22T02:06:09.007Z,5.80
2019-04-22T02:08:46.661Z,6.50
2019-04-22T02:11:24.117Z,6.00
2019-04-22T02:13:49.797Z,6.97
2019-04-22T02:16:21.383Z,5.57
2019-04-22T02:19:01.237Z,6.60
2019-04-22T02:21:28.578Z,6.10
2019-04-22T02:24:18.072Z,6.33
2019-04-22T02:26:35.496Z,6.10
2019-04-22T02:29:06.611Z,6.43
2019-04-22T02:34:35.161Z,6.10
2019-04-22T02:36:58.094Z,6.40
2019-04-22T02:42:14.413Z,5.77
2019-04-22T02:44:37.410Z,5.60
2019-04-22T02:57:10.154Z,6.20
2019-04-22T02:59:34.586Z,5.90
2019-04-22T03:02:07.655Z,6.80
2019-04-22T03:04:37.570Z,6.80
2019-04-22T03:07:09.028Z,6.40
2019-04-22T03:09:51.057Z,6.23
2019-04-22T03:17:29.198Z,7.10
2019-04-22T03:20:08.992Z,7.13
2019-04-22T03:22:55.129Z,7.47
2019-04-22T03:27:42.863Z,6.93
2019-04-22T03:33:11.724Z,6.40
2019-04-22T03:40:46.367Z,7.40
2019-04-22T03:49:10.867Z,6.73
2019-04-22T03:51:47.869Z,7.00
2019-04-22T03:54:10.938Z,7.50
2019-04-22T04:10:39.710Z,6.83
2019-04-22T04:13:33.203Z,7.13
2019-04-22T04:16:07.076Z,7.17
2019-04-22T04:29:22.136Z,7.10
2019-04-22T04:31:41.320Z,7.90
2019-04-22T04:34:17.116Z,7.40
2019-04-22T04:36:51.893Z,8.23
2019-04-22T04:39:18.843Z,7.20
2019-04-22T04:41:59.606Z,7.57
2019-04-22T04:44:34.285Z,8.03
2019-04-22T04:52:14.496Z,8.10
2019-04-22T04:58:36.915Z,7.00
2019-04-22T05:01:05.665Z,6.37
2019-04-22T05:06:12.587Z,7.50
2019-04-22T05:11:16.206Z,7.87
2019-04-22T05:21:21.778Z,7.77
2019-04-22T05:34:19.358Z,7.60
2019-04-22T05:36:50.231Z,7.80
2019-04-22T05:39:15.811Z,8.00
2019-04-22T05:41:54.879Z,8.07
2019-04-22T05:44:22.293Z,7.70
2019-04-22T05:46:52.735Z,7.30
2019-04-22T05:49:33.254Z,7.70
2019-04-22T05:52:02.770Z,7.57
2019-04-22T05:54:44.720Z,7.97
2019-04-22T06:04:29.531Z,8.50
2019-04-22T06:07:00.522Z,7.43
2019-04-22T06:09:32.270Z,7.93
2019-04-22T06:12:04.943Z,8.07
2019-04-22T06:14:49.240Z,8.13
2019-04-22T06:17:24.764Z,8.77
2019-04-22T06:19:57.663Z,8.17
2019-04-22T06:22:38.707Z,7.90
2019-04-22T06:25:17.734Z,8.60
2019-04-22T06:27:41.299Z,7.87
2019-04-22T06:30:19.043Z,8.43
2019-04-22T06:32:53.902Z,8.07
2019-04-22T06:35:29.767Z,8.20
2019-04-22T06:43:03.420Z,7.77
2019-04-22T06:45:51.709Z,7.77
2019-04-22T06:48:33.265Z,8.33
2019-04-22T06:55:05.927Z,8.83
2019-04-22T06:57:30.811Z,8.03
2019-04-22T07:00:11.855Z,8.40
2019-04-22T07:02:56.374Z,8.27
2019-04-22T07:05:16.633Z,7.97
2019-04-22T07:07:46.251Z,8.43
2019-04-22T07:10:30.106Z,8.20
2019-04-22T07:12:49.825Z,8.17
2019-04-22T07:15:42.361Z,8.10
2019-04-22T07:18:07.571Z,7.73
2019-04-22T07:20:36.433Z,8.17
2019-04-22T07:23:19.585Z,7.80
2019-04-22T07:28:17.713Z,8.00
2019-04-22T07:30:54.609Z,8.57
2019-04-22T07:36:23.419Z,7.77
2019-04-22T07:38:29.839Z,7.37
2019-04-22T07:41:10.527Z,8.20
2019-04-22T07:46:13.599Z,7.97
2019-04-22T07:49:02.122Z,8.17
2019-04-22T07:51:20.216Z,9.03
2019-04-22T07:53:56.271Z,7.33
2019-04-22T07:56:29.465Z,7.00
2019-04-22T07:59:07.630Z,7.50
2019-04-22T08:01:36.644Z,7.23
2019-04-22T08:04:45.652Z,7.40
2019-04-22T08:09:19.831Z,6.00
2019-04-22T08:15:50.294Z,7.20
2019-04-22T08:20:52.084Z,6.67
2019-04-22T08:23:25.932Z,6.40
2019-04-22T08:25:55.706Z,6.40
2019-04-22T08:28:31.719Z,6.03
2019-04-22T08:31:11.914Z,6.27
2019-04-22T08:36:26.294Z,5.90
2019-04-22T08:38:50.735Z,5.93
2019-04-22T08:41:27.300Z,6.07
2019-04-22T08:46:40.509Z,5.10
2019-04-22T08:49:00.800Z,5.40
2019-04-22T08:51:49.353Z,5.30
2019-04-22T08:58:03.171Z,5.53
2019-04-22T09:00:21.562Z,5.37
2019-04-22T09:02:53.973Z,5.47
2019-04-22T09:09:09.762Z,4.90
2019-04-22T09:11:44.683Z,5.53
2019-04-22T09:14:14.087Z,5.10
2019-04-22T09:16:55.442Z,5.33
2019-04-22T09:19:32.262Z,5.90
2019-04-22T09:25:11.699Z,5.23
2019-04-22T09:30:25.994Z,4.97
2019-04-22T09:32:55.769Z,5.10
2019-04-22T09:35:31.546Z,4.97
2019-04-22T09:38:19.894Z,4.90
2019-04-22T09:40:39.084Z,5.30
2019-04-22T09:43:32.077Z,4.80
2019-04-22T09:46:06.538Z,4.70
2019-04-22T09:48:41.725Z,5.10
2019-04-22T09:51:08.582Z,4.87
2019-04-22T09:56:19.390Z,4.80
2019-04-22T09:58:51.656Z,5.77
2019-04-22T10:01:38.464Z,5.07
2019-04-22T10:04:23.450Z,5.00
2019-04-22T10:06:39.461Z,4.90
2019-04-22T10:09:44.288Z,5.30
2019-04-22T10:11:47.019Z,4.77
2019-04-22T10:14:19.040Z,4.60
2019-04-22T10:19:23.137Z,4.97
2019-04-22T10:22:19.965Z,4.93
2019-04-22T10:24:36.913Z,4.27
2019-04-22T10:27:08.056Z,4.37
2019-04-22T10:29:51.464Z,4.33
2019-04-22T10:32:11.241Z,4.00
2019-04-22T10:34:33.959Z,4.30
2019-04-22T10:37:02.733Z,4.27
2019-04-22T10:39:39.903Z,4.03
2019-04-22T10:42:09.098Z,4.43
2019-04-22T10:44:41.460Z,4.10
2019-04-22T10:50:28.147Z,4.10
2019-04-22T10:52:59.863Z,4.13
2019-04-22T10:55:31.838Z,3.30
2019-04-22T10:58:04.385Z,4.50
2019-04-22T11:00:39.735Z,3.50
2019-04-22T11:03:13.915Z,4.10
2019-04-22T11:05:46.238Z,3.80
2019-04-22T11:08:27.162Z,4.00
2019-04-22T11:11:07.126Z,4.57
2019-04-22T11:13:33.922Z,3.90
2019-04-22T11:16:05.541Z,4.20
2019-04-22T11:18:39.287Z,4.20
2019-04-22T11:21:11.977Z,3.57
2019-04-22T11:23:44.676Z,4.30
2019-04-22T11:26:17.597Z,4.13
2019-04-22T11:28:49.726Z,4.03
2019-04-22T11:31:21.525Z,3.63
2019-04-22T11:33:54.431Z,4.00
2019-04-22T11:36:29.164Z,4.20
2019-04-22T11:39:03.555Z,4.17
2019-04-22T11:41:33.892Z,3.50
2019-04-22T11:44:07.563Z,3.50
2019-04-22T11:46:41.255Z,4.00
2019-04-22T11:49:13.963Z,3.60
2019-04-22T11:55:17.052Z,3.70
2019-04-22T12:04:49.789Z,3.90
2019-04-22T12:07:23.423Z,3.97
2019-04-22T12:09:55.598Z,3.70
2019-04-22T12:12:27.814Z,3.50
2019-04-22T12:15:00.786Z,3.60
2019-04-22T12:17:33.871Z,3.30
2019-04-22T12:20:08.745Z,3.43
2019-04-22T12:22:39.016Z,4.07
2019-04-22T12:25:12.641Z,4.00
2019-04-22T12:27:45.690Z,3.43
2019-04-22T12:30:21.387Z,3.53
2019-04-22T12:32:52.770Z,3.70
2019-04-22T12:35:24.511Z,3.90
2019-04-22T12:41:21.609Z,4.00
2019-04-22T12:43:53.529Z,3.80
2019-04-22T12:46:26.073Z,3.80
2019-04-22T12:48:58.232Z,4.10
2019-04-22T12:51:31.179Z,4.13
2019-04-22T12:54:03.389Z,4.20
2019-04-22T12:56:35.483Z,3.93
2019-04-22T12:59:07.675Z,4.27
2019-04-22T13:01:40.539Z,4.13
2019-04-22T13:04:14.225Z,4.10
2019-04-22T13:06:46.060Z,4.57
2019-04-22T13:09:19.111Z,4.17
2019-04-22T13:11:52.961Z,4.23
2019-04-22T13:18:03.208Z,4.43
2019-04-22T13:20:24.298Z,3.73
2019-04-22T13:22:56.938Z,3.50
2019-04-22T13:25:30.282Z,3.93
2019-04-22T13:28:02.972Z,3.60
2019-04-22T13:30:38.425Z,3.63
2019-04-22T13:33:10.802Z,3.80
2019-04-22T13:35:43.638Z,4.10
2019-04-22T13:38:17.151Z,3.80
2019-04-22T13:41:12.782Z,4.10
2019-04-22T13:43:26.758Z,3.60
2019-04-22T13:45:59.411Z,4.30
2019-04-22T13:48:52.760Z,3.97
2019-04-22T13:51:43.265Z,3.60
2019-04-22T13:56:30.453Z,3.53
2019-04-22T13:58:57.732Z,3.83
2019-04-22T14:01:22.743Z,3.47
2019-04-22T14:04:02.933Z,3.70
2019-04-22T14:06:34.719Z,3.83
2019-04-22T14:09:09.571Z,4.00
2019-04-22T14:11:49.401Z,3.70
2019-04-22T14:14:15.531Z,3.73
2019-04-22T14:16:49.117Z,3.77
2019-04-22T14:19:20.526Z,3.90
2019-04-22T14:21:55.658Z,3.90
2019-04-22T14:27:47.977Z,3.80
2019-04-22T14:30:08.537Z,3.50
2019-04-22T14:32:39.991Z,4.00
2019-04-22T14:35:13.233Z,3.17
2019-04-22T14:37:45.874Z,3.97
2019-04-22T14:40:18.742Z,3.97
2019-04-22T14:43:10.101Z,3.10
2019-04-22T14:46:01.562Z,3.40
2019-04-22T14:48:26.680Z,3.83
2019-04-22T14:50:51.863Z,3.90
2019-04-22T14:53:26.051Z,3.57
2019-04-22T14:55:40.357Z,8.73
2019-04-22T14:58:13.054Z,5.83
2019-04-22T15:00:46.000Z,4.00
2019-04-22T15:03:17.677Z,4.00
2019-04-22T15:05:50.394Z,3.47
2019-04-22T15:08:22.945Z,3.93
2019-04-22T15:10:58.247Z,3.10
2019-04-22T15:13:31.456Z,3.70
2019-04-22T15:16:25.822Z,4.77
2019-04-22T15:19:20.177Z,3.60
2019-04-22T15:21:52.522Z,3.67
2019-04-22T15:24:30.230Z,4.20
2019-04-22T15:27:02.640Z,3.70
2019-04-22T15:29:33.822Z,3.53
2019-04-22T15:32:07.543Z,3.53
2019-04-22T15:34:39.483Z,4.67
2019-04-22T15:37:12.285Z,3.87
2019-04-22T15:39:43.953Z,3.43
2019-04-22T15:42:22.792Z,4.00
2019-04-22T15:48:44.074Z,3.63
2019-04-22T15:51:16.541Z,3.97
2019-04-22T15:53:51.929Z,3.53
2019-04-22T15:56:42.382Z,3.77
2019-04-22T15:59:30.180Z,3.73
2019-04-22T16:01:48.590Z,3.70
2019-04-22T16:07:45.822Z,3.70
2019-04-22T16:10:19.808Z,4.03
2019-04-22T16:13:00.048Z,3.90
2019-04-22T16:15:24.786Z,3.20
2019-04-22T16:17:59.425Z,3.90
2019-04-22T16:20:41.072Z,3.40
2019-04-22T16:23:21.848Z,3.63
2019-04-22T16:26:16.153Z,3.40
2019-04-22T16:28:49.227Z,3.83
2019-04-22T16:31:22.478Z,3.70
2019-04-22T16:34:13.448Z,4.20
2019-04-22T16:36:45.087Z,3.53
2019-04-22T16:39:18.410Z,4.20
2019-04-22T16:41:50.915Z,4.30
2019-04-22T16:44:26.721Z,3.60
2019-04-22T16:47:01.557Z,3.73
2019-04-22T16:49:45.683Z,4.13
2019-04-22T16:52:18.292Z,3.70
2019-04-22T16:54:50.740Z,4.77
2019-04-22T17:01:06.991Z,3.10
2019-04-22T17:04:22.903Z,3.90
2019-04-22T17:07:05.870Z,3.77
2019-04-22T17:09:37.526Z,3.97
2019-04-22T17:12:09.826Z,3.80
2019-04-22T17:14:50.393Z,3.73
2019-04-22T17:17:18.220Z,4.00
2019-04-22T17:19:51.257Z,4.30
2019-04-22T17:25:38.471Z,4.43
2019-04-22T17:28:10.300Z,4.87
2019-04-22T17:30:41.596Z,5.30
2019-04-22T17:33:14.532Z,6.47
2019-04-22T17:35:48.547Z,5.30
2019-04-22T17:38:28.525Z,5.00
2019-04-22T17:41:08.788Z,4.77
2019-04-22T17:44:06.578Z,4.37
2019-04-22T17:46:24.796Z,3.70
2019-04-22T17:52:36.581Z,3.67
2019-04-22T17:55:12.623Z,4.40
2019-04-22T17:57:44.679Z,3.90
2019-04-22T18:00:19.016Z,4.50
2019-04-22T18:02:51.370Z,4.17
2019-04-22T18:05:11.035Z,3.80
2019-04-22T18:08:05.542Z,3.87
2019-04-22T18:10:37.534Z,4.10
2019-04-22T18:13:23.813Z,3.77
2019-04-22T18:15:43.575Z,3.50
2019-04-22T18:18:21.710Z,3.70
2019-04-22T18:21:09.827Z,4.40
2019-04-22T18:23:40.125Z,3.93
2019-04-22T18:26:23.112Z,4.40
2019-04-22T18:28:55.923Z,4.20
2019-04-22T18:31:21.850Z,4.30
2019-04-22T18:33:58.701Z,4.50
2019-04-22T18:36:33.303Z,4.23
2019-04-22T18:39:38.981Z,4.00
2019-04-22T18:42:03.666Z,4.30
2019-04-22T18:44:40.269Z,4.60
2019-04-22T18:47:10.699Z,4.40
2019-04-22T18:49:43.226Z,4.27
2019-04-22T18:52:42.714Z,5.17
2019-04-22T18:55:39.124Z,3.93
2019-04-22T18:58:09.007Z,4.80
2019-04-22T19:07:24.293Z,4.10
2019-04-22T19:10:27.542Z,4.33
2019-04-22T19:13:17.546Z,4.13
2019-04-22T19:21:43.289Z,5.00
2019-04-22T19:24:18.128Z,5.20
2019-04-22T19:26:55.914Z,5.57
2019-04-22T19:29:25.674Z,6.33
2019-04-22T19:32:03.960Z,6.30
2019-04-22T19:34:38.491Z,6.17
2019-04-22T19:37:07.063Z,7.10
2019-04-22T19:39:40.970Z,7.80
2019-04-22T19:42:27.092Z,6.30
2019-04-22T19:44:50.810Z,6.07
2019-04-22T19:50:09.010Z,4.90
2019-04-22T19:52:35.573Z,5.13
2019-04-22T19:55:07.746Z,5.17
2019-04-22T20:04:46.239Z,4.90
2019-04-22T20:07:18.309Z,5.10
2019-04-22T20:09:55.632Z,5.20
2019-04-22T20:12:21.411Z,5.53
2019-04-22T20:14:55.617Z,4.70
2019-04-22T20:18:22.225Z,5.00
2019-04-22T20:21:18.289Z,4.90
2019-04-22T20:23:39.309Z,5.53
2019-04-22T20:26:16.263Z,5.30
2019-04-22T20:28:58.957Z,5.00
2019-04-22T20:31:30.346Z,5.80
2019-04-22T20:34:12.953Z,5.67
2019-04-22T20:37:01.882Z,5.63
2019-04-22T20:39:07.825Z,5.43
2019-04-22T20:41:46.135Z,5.40
2019-04-22T20:44:26.093Z,4.90
2019-04-22T20:46:49.112Z,5.17
2019-04-22T20:49:30.943Z,6.17
2019-04-22T20:52:24.022Z,5.50
2019-04-22T20:54:37.293Z,6.10
2019-04-22T20:57:15.816Z,5.70
2019-04-22T20:59:48.359Z,6.57
2019-04-22T21:02:17.906Z,6.47
2019-04-22T21:04:48.821Z,5.70
2019-04-22T21:07:34.428Z,5.53
2019-04-22T21:10:09.110Z,6.00
2019-04-22T21:12:36.443Z,5.80
2019-04-22T21:15:23.840Z,6.40
2019-04-22T21:21:19.594Z,6.20
2019-04-22T21:23:45.928Z,6.10
2019-04-22T21:26:26.644Z,6.40
2019-04-22T21:29:01.116Z,6.27
2019-04-22T21:31:38.587Z,6.57
2019-04-22T21:34:10.128Z,6.73
2019-04-22T21:36:48.043Z,6.63
2019-04-22T21:39:19.167Z,6.73
2019-04-22T21:41:55.702Z,6.37
2019-04-22T21:44:26.729Z,5.80
2019-04-22T21:47:10.453Z,6.57
2019-04-22T21:49:35.519Z,6.47
2019-04-22T21:52:13.936Z,6.27
2019-04-22T21:54:50.176Z,6.70
2019-04-22T21:58:00.441Z,6.83
2019-04-22T22:00:31.216Z,5.53
2019-04-22T22:02:58.609Z,6.93
2019-04-22T22:05:26.618Z,6.37
2019-04-22T22:08:46.046Z,6.70
2019-04-22T22:14:33.516Z,6.63
2019-04-22T22:17:02.257Z,6.40
2019-04-22T22:19:44.449Z,6.40
2019-04-22T22:22:40.843Z,5.47
2019-04-22T22:24:55.115Z,5.50
2019-04-22T22:27:25.296Z,5.40
2019-04-22T22:30:06.668Z,5.90
2019-04-22T22:32:32.136Z,6.47
2019-04-22T22:35:05.573Z,7.10
2019-04-22T22:37:23.814Z,7.20
2019-04-22T22:39:56.562Z,6.50
2019-04-22T22:42:30.169Z,6.10
2019-04-22T22:45:04.726Z,6.77
2019-04-22T22:48:09.664Z,6.40
2019-04-22T22:50:40.286Z,6.50
2019-04-22T22:53:22.336Z,6.60
2019-04-22T22:55:46.312Z,5.90
2019-04-22T22:58:19.137Z,5.97
2019-04-22T23:00:44.697Z,6.60
2019-04-22T23:03:40.521Z,6.07
2019-04-22T23:05:59.140Z,5.90
2019-04-22T23:08:35.924Z,5.90
2019-04-22T23:11:05.030Z,6.30
2019-04-22T23:13:37.164Z,6.03
2019-04-22T23:16:04.294Z,5.70
2019-04-22T23:18:23.768Z,6.33
2019-04-22T23:20:57.290Z,6.67
2019-04-22T23:23:59.322Z,6.37
2019-04-22T23:26:43.927Z,6.10
2019-04-22T23:29:32.692Z,6.40
2019-04-22T23:32:21.082Z,6.00
2019-04-22T23:35:33.858Z,6.10
2019-04-22T23:38:07.532Z,7.43
2019-04-22T23:40:57.104Z,7.07
2019-04-22T23:43:24.083Z,6.53
2019-04-22T23:45:50.264Z,6.73
2019-04-22T23:48:17.982Z,7.00
2019-04-22T23:50:55.601Z,6.53
2019-04-22T23:53:57.906Z,6.37
2019-04-22T23:56:07.935Z,6.40
2019-04-22T23:59:02.642Z,6.10
